createdAt,value
2022-09-13T00:00:17.254Z,41.60
2022-09-13T00:02:43.909Z,41.50
2022-09-13T00:05:10.596Z,42.10
2022-09-13T00:07:37.227Z,41.70
2022-09-13T00:10:05.216Z,41.90
2022-09-13T00:12:31.860Z,42.00
2022-09-13T00:14:58.469Z,42.80
2022-09-13T00:17:25.906Z,42.60
2022-09-13T00:19:52.826Z,43.00
2022-09-13T00:22:19.614Z,42.80
2022-09-13T00:24:46.208Z,42.50
2022-09-13T00:27:13.847Z,42.50
2022-09-13T00:29:40.847Z,42.40
2022-09-13T00:32:12.686Z,42.40
2022-09-13T00:35:07.644Z,42.30
2022-09-13T00:37:34.789Z,42.40
2022-09-13T00:40:09.405Z,42.30
2022-09-13T00:42:39.148Z,42.60
2022-09-13T00:45:12.140Z,42.40
2022-09-13T00:47:39.957Z,42.40
2022-09-13T00:50:13.436Z,42.40
2022-09-13T00:52:42.737Z,42.50
2022-09-13T00:55:27.778Z,42.40
2022-09-13T00:57:54.717Z,42.60
2022-09-13T01:00:21.925Z,43.00
2022-09-13T01:02:56.192Z,42.80
2022-09-13T01:05:28.586Z,42.70
2022-09-13T01:07:55.865Z,42.80
2022-09-13T01:10:23.699Z,42.70
2022-09-13T01:13:11.260Z,42.70
2022-09-13T01:15:37.945Z,43.00
2022-09-13T01:18:05.267Z,42.60
2022-09-13T01:20:58.455Z,42.70
2022-09-13T01:23:39.462Z,42.90
2022-09-13T01:26:23.159Z,42.90
2022-09-13T01:29:12.941Z,43.00
2022-09-13T01:32:13.992Z,42.90
2022-09-13T01:34:51.007Z,42.80
2022-09-13T01:37:48.579Z,42.80
2022-09-13T01:40:31.400Z,43.00
2022-09-13T01:43:15.135Z,43.10
2022-09-13T01:46:17.974Z,43.10
2022-09-13T01:49:20.056Z,42.90
2022-09-13T01:51:53.833Z,43.10
2022-09-13T01:54:31.166Z,43.10
2022-09-13T01:57:35.819Z,43.20
2022-09-13T02:00:14.109Z,43.20
2022-09-13T02:03:09.901Z,43.10
2022-09-13T02:06:03.875Z,43.30
2022-09-13T02:08:47.256Z,43.20
2022-09-13T02:11:23.237Z,43.20
2022-09-13T02:13:59.874Z,43.60
2022-09-13T02:16:48.984Z,43.60
2022-09-13T02:19:58.286Z,43.80
2022-09-13T02:22:40.629Z,43.40
2022-09-13T02:25:17.182Z,43.60
2022-09-13T02:27:50.283Z,43.60
2022-09-13T02:30:17.601Z,43.60
2022-09-13T02:32:49.411Z,43.60
2022-09-13T02:35:21.327Z,43.70
2022-09-13T02:37:52.178Z,43.80
2022-09-13T02:40:23.291Z,43.80
2022-09-13T02:43:01.727Z,43.80
2022-09-13T02:45:31.889Z,43.80
2022-09-13T02:47:59.715Z,43.90
2022-09-13T02:50:41.309Z,43.90
2022-09-13T02:53:38.724Z,44.00
2022-09-13T02:56:10.476Z,44.10
2022-09-13T02:58:46.710Z,44.00
2022-09-13T03:01:14.455Z,44.00
2022-09-13T03:03:41.440Z,44.30
2022-09-13T03:06:10.339Z,44.20
2022-09-13T03:08:38.866Z,44.10
2022-09-13T03:11:25.839Z,44.20
2022-09-13T03:14:03.820Z,44.50
2022-09-13T03:16:52.357Z,44.50
2022-09-13T03:19:40.695Z,44.80
2022-09-13T03:22:47.909Z,44.50
2022-09-13T03:25:45.113Z,44.80
2022-09-13T03:28:42.534Z,45.40
2022-09-13T03:31:29.948Z,45.10
2022-09-13T03:34:07.237Z,45.00
2022-09-13T03:36:35.596Z,45.10
2022-09-13T03:39:15.174Z,45.00
2022-09-13T03:41:48.165Z,45.20
2022-09-13T03:44:14.820Z,45.20
2022-09-13T03:46:46.727Z,45.30
2022-09-13T03:49:18.047Z,45.60
2022-09-13T03:51:45.833Z,45.80
2022-09-13T03:54:18.768Z,46.20
2022-09-13T03:57:10.492Z,46.20
2022-09-13T03:59:46.410Z,46.00
2022-09-13T04:02:13.121Z,46.20
2022-09-13T04:04:40.543Z,46.10
2022-09-13T04:07:07.236Z,46.40
2022-09-13T04:09:33.853Z,46.50
2022-09-13T04:12:00.464Z,46.90
2022-09-13T04:14:28.184Z,46.60
2022-09-13T04:16:55.562Z,46.50
2022-09-13T04:19:24.242Z,46.50
2022-09-13T04:21:52.113Z,46.40
2022-09-13T04:24:18.976Z,46.40
2022-09-13T04:26:49.409Z,46.40
2022-09-13T04:29:16.001Z,46.50
2022-09-13T04:31:42.828Z,46.50
2022-09-13T04:34:09.498Z,46.30
2022-09-13T04:36:36.182Z,46.40
2022-09-13T04:39:02.890Z,46.50
2022-09-13T04:41:29.857Z,46.50
2022-09-13T04:43:56.577Z,46.50
2022-09-13T04:46:23.322Z,46.50
2022-09-13T04:48:51.515Z,46.40
2022-09-13T04:51:18.702Z,46.70
2022-09-13T04:53:45.864Z,46.60
2022-09-13T04:56:14.056Z,46.50
2022-09-13T04:58:41.342Z,46.60
2022-09-13T05:01:09.227Z,46.60
2022-09-13T05:03:36.077Z,46.60
2022-09-13T05:06:07.335Z,46.80
2022-09-13T05:08:34.163Z,47.40
2022-09-13T05:11:00.938Z,47.50
2022-09-13T05:13:28.080Z,46.90
2022-09-13T05:15:58.414Z,46.90
2022-09-13T05:18:32.518Z,46.90
2022-09-13T05:20:59.886Z,47.20
2022-09-13T05:23:27.307Z,47.10
2022-09-13T05:25:58.084Z,47.30
2022-09-13T05:28:24.963Z,47.30
2022-09-13T05:31:07.026Z,47.20
2022-09-13T05:33:35.465Z,48.00
2022-09-13T05:36:02.331Z,47.30
2022-09-13T05:38:29.584Z,47.40
2022-09-13T05:40:57.142Z,47.30
2022-09-13T05:43:26.384Z,47.50
2022-09-13T05:46:20.383Z,47.50
2022-09-13T05:48:47.234Z,47.50
2022-09-13T05:51:15.534Z,47.40
2022-09-13T05:53:43.448Z,47.60
2022-09-13T05:56:15.828Z,47.40
2022-09-13T05:58:48.157Z,47.50
2022-09-13T06:01:16.188Z,47.50
2022-09-13T06:03:42.899Z,47.50
2022-09-13T06:06:10.391Z,47.60
2022-09-13T06:08:37.254Z,47.70
2022-09-13T06:11:08.364Z,47.60
2022-09-13T06:13:37.032Z,47.80
2022-09-13T06:16:05.494Z,47.60
2022-09-13T06:18:32.625Z,47.70
2022-09-13T06:21:06.746Z,47.90
2022-09-13T06:23:35.573Z,47.90
2022-09-13T06:26:09.932Z,47.80
2022-09-13T06:28:37.653Z,47.80
2022-09-13T06:31:06.352Z,47.70
2022-09-13T06:33:33.934Z,47.80
2022-09-13T06:36:02.354Z,47.70
2022-09-13T06:38:30.070Z,47.80
2022-09-13T06:41:10.888Z,47.60
2022-09-13T06:43:38.113Z,47.60
2022-09-13T06:46:13.636Z,47.50
2022-09-13T06:48:42.224Z,47.50
2022-09-13T06:51:11.230Z,47.50
2022-09-13T06:53:39.242Z,47.50
2022-09-13T06:56:14.300Z,47.30
2022-09-13T06:58:42.366Z,47.40
2022-09-13T07:01:17.200Z,47.30
2022-09-13T07:03:52.114Z,47.20
2022-09-13T07:06:23.486Z,47.10
2022-09-13T07:08:51.541Z,47.20
2022-09-13T07:11:19.624Z,46.90
2022-09-13T07:13:55.913Z,47.10
2022-09-13T07:16:24.434Z,47.10
2022-09-13T07:18:58.967Z,46.90
2022-09-13T07:21:26.356Z,47.00
2022-09-13T07:23:53.792Z,46.70
2022-09-13T07:26:20.635Z,46.10
2022-09-13T07:28:48.826Z,46.30
2022-09-13T07:31:23.452Z,46.60
2022-09-13T07:33:54.864Z,46.90
2022-09-13T07:36:21.767Z,46.70
2022-09-13T07:38:48.999Z,45.80
2022-09-13T07:41:25.730Z,45.20
2022-09-13T07:43:52.715Z,45.90
2022-09-13T07:46:21.439Z,45.10
2022-09-13T07:48:51.337Z,45.80
2022-09-13T07:51:31.681Z,44.70
2022-09-13T07:54:03.435Z,45.30
2022-09-13T07:56:36.950Z,45.10
2022-09-13T07:59:05.723Z,43.90
2022-09-13T08:01:39.747Z,43.50
2022-09-13T08:04:10.756Z,43.20
2022-09-13T08:06:39.336Z,43.20
2022-09-13T08:09:10.590Z,42.50
2022-09-13T08:11:43.093Z,42.40
2022-09-13T08:14:12.824Z,42.80
2022-09-13T08:16:39.942Z,42.70
2022-09-13T08:19:29.394Z,42.00
2022-09-13T08:21:56.800Z,41.40
2022-09-13T08:24:31.928Z,41.70
2022-09-13T08:27:09.492Z,41.60
2022-09-13T08:29:38.903Z,41.80
2022-09-13T08:32:12.161Z,40.90
2022-09-13T08:34:44.619Z,40.20
2022-09-13T08:37:15.182Z,40.70
2022-09-13T08:39:54.297Z,39.20
2022-09-13T08:42:44.872Z,40.00
2022-09-13T08:45:14.011Z,40.70
2022-09-13T08:47:59.626Z,38.70
2022-09-13T08:50:37.183Z,38.50
2022-09-13T08:53:23.075Z,37.50
2022-09-13T08:56:09.283Z,37.90
2022-09-13T08:58:59.474Z,37.20
2022-09-13T09:01:56.501Z,37.10
2022-09-13T09:05:02.294Z,36.70
2022-09-13T09:07:35.584Z,36.70
2022-09-13T09:10:06.706Z,35.80
2022-09-13T09:12:44.851Z,34.30
2022-09-13T09:15:38.599Z,35.60
2022-09-13T09:18:17.210Z,36.00
2022-09-13T09:21:20.315Z,35.20
2022-09-13T09:23:53.880Z,35.70
2022-09-13T09:26:31.039Z,35.10
2022-09-13T09:29:25.669Z,34.90
2022-09-13T09:32:15.584Z,34.80
2022-09-13T09:35:04.432Z,34.90
2022-09-13T09:37:32.103Z,34.70
2022-09-13T09:40:03.348Z,34.60
2022-09-13T09:42:39.550Z,35.10
2022-09-13T09:45:33.300Z,35.70
2022-09-13T09:48:06.486Z,36.00
2022-09-13T09:50:41.926Z,37.00
2022-09-13T09:53:46.784Z,36.90
2022-09-13T09:56:28.694Z,38.10
2022-09-13T09:59:03.795Z,38.40
2022-09-13T10:01:45.444Z,37.90
2022-09-13T10:04:20.389Z,38.30
2022-09-13T10:07:15.757Z,39.10
2022-09-13T10:09:54.467Z,38.60
2022-09-13T10:12:29.796Z,38.00
2022-09-13T10:15:22.871Z,37.70
2022-09-13T10:18:43.440Z,37.90
2022-09-13T10:21:21.273Z,37.90
2022-09-13T10:23:55.527Z,37.50
2022-09-13T10:26:37.625Z,37.50
2022-09-13T10:29:16.499Z,36.90
2022-09-13T10:31:48.693Z,37.20
2022-09-13T10:34:31.952Z,37.10
2022-09-13T10:37:21.466Z,37.30
2022-09-13T10:40:42.578Z,37.60
2022-09-13T10:43:30.450Z,37.60
2022-09-13T10:46:17.924Z,37.30
2022-09-13T10:48:59.300Z,37.70
2022-09-13T10:51:43.444Z,38.10
2022-09-13T10:54:33.651Z,38.30
2022-09-13T10:57:41.218Z,38.00
2022-09-13T11:01:04.483Z,37.90
2022-09-13T11:04:00.268Z,38.00
2022-09-13T11:10:26.702Z,37.20
2022-09-13T11:13:08.331Z,37.10
2022-09-13T11:16:32.100Z,35.90
2022-09-13T11:22:25.660Z,36.10
2022-09-13T11:25:21.101Z,36.30
2022-09-13T11:28:14.616Z,36.10
2022-09-13T11:31:03.939Z,36.30
2022-09-13T11:33:55.754Z,36.40
2022-09-13T11:36:29.744Z,36.50
2022-09-13T11:39:29.155Z,35.70
2022-09-13T11:42:18.216Z,36.50
2022-09-13T11:45:03.467Z,36.60
2022-09-13T11:47:46.086Z,36.80
2022-09-13T11:50:39.948Z,36.80
2022-09-13T11:53:16.731Z,37.50
2022-09-13T11:55:57.273Z,37.60
2022-09-13T11:58:34.928Z,37.20
2022-09-13T12:01:07.298Z,37.00
2022-09-13T12:03:45.166Z,36.70
2022-09-13T12:06:16.008Z,35.20
2022-09-13T12:08:47.719Z,34.00
2022-09-13T12:11:25.110Z,34.00
2022-09-13T12:13:58.504Z,33.40
2022-09-13T12:16:36.258Z,32.40
2022-09-13T12:19:16.585Z,32.80
2022-09-13T12:21:51.622Z,32.40
2022-09-13T12:24:45.417Z,32.30
2022-09-13T12:27:46.044Z,31.90
2022-09-13T12:30:20.907Z,32.40
2022-09-13T12:32:48.528Z,31.80
2022-09-13T12:35:31.882Z,31.40
2022-09-13T12:38:20.641Z,32.20
2022-09-13T12:41:13.295Z,32.00
2022-09-13T12:43:51.148Z,30.70
2022-09-13T12:46:54.779Z,30.00
2022-09-13T12:49:52.315Z,29.70
2022-09-13T12:52:50.538Z,29.80
2022-09-13T12:55:46.236Z,29.70
2022-09-13T12:58:30.023Z,29.00
2022-09-13T13:01:21.839Z,29.40
2022-09-13T13:04:16.308Z,30.20
2022-09-13T13:06:50.524Z,30.10
2022-09-13T13:09:42.314Z,29.20
2022-09-13T13:12:29.922Z,28.20
2022-09-13T13:14:57.071Z,29.00
2022-09-13T13:17:37.851Z,28.50
2022-09-13T13:20:43.368Z,28.70
2022-09-13T13:23:35.285Z,25.90
2022-09-13T13:26:07.655Z,23.60
2022-09-13T13:28:44.430Z,23.40
2022-09-13T13:31:36.314Z,23.00
2022-09-13T13:34:18.531Z,24.30
2022-09-13T13:36:45.679Z,22.50
2022-09-13T13:39:26.467Z,21.90
2022-09-13T13:41:55.506Z,22.20
2022-09-13T13:44:23.196Z,21.60
2022-09-13T13:47:08.862Z,22.20
2022-09-13T13:49:38.855Z,22.40
2022-09-13T13:52:15.651Z,21.20
2022-09-13T13:55:04.516Z,22.10
2022-09-13T13:57:39.219Z,22.90
2022-09-13T14:00:14.194Z,22.00
2022-09-13T14:02:43.322Z,22.50
2022-09-13T14:05:26.012Z,22.50
2022-09-13T14:08:01.613Z,23.00
2022-09-13T14:10:48.277Z,23.40
2022-09-13T14:13:55.118Z,23.60
2022-09-13T14:16:37.809Z,24.20
2022-09-13T14:19:36.816Z,24.80
2022-09-13T14:22:20.786Z,25.40
2022-09-13T14:24:55.286Z,25.50
2022-09-13T14:27:39.473Z,26.10
2022-09-13T14:30:21.430Z,26.50
2022-09-13T14:32:56.326Z,26.30
2022-09-13T14:35:31.387Z,26.70
2022-09-13T14:38:30.982Z,27.10
2022-09-13T14:41:17.430Z,27.40
2022-09-13T14:43:49.842Z,27.60
2022-09-13T14:46:45.923Z,27.50
2022-09-13T14:49:19.653Z,27.70
2022-09-13T14:52:25.466Z,27.80
2022-09-13T14:54:53.894Z,27.80
2022-09-13T14:57:39.198Z,27.90
2022-09-13T15:00:25.838Z,27.80
2022-09-13T15:03:00.312Z,27.70
2022-09-13T15:05:33.097Z,27.60
2022-09-13T15:08:08.847Z,27.70
2022-09-13T15:10:51.319Z,27.60
2022-09-13T15:13:43.634Z,27.80
2022-09-13T15:16:46.155Z,28.20
2022-09-13T15:19:38.344Z,28.40
2022-09-13T15:22:38.385Z,27.80
2022-09-13T15:25:09.169Z,28.70
2022-09-13T15:27:45.973Z,28.70
2022-09-13T15:30:34.663Z,29.10
2022-09-13T15:33:05.752Z,29.30
2022-09-13T15:35:43.921Z,29.00
2022-09-13T15:38:31.948Z,29.10
2022-09-13T15:41:12.819Z,29.40
2022-09-13T15:43:39.832Z,29.30
2022-09-13T15:46:06.925Z,29.30
2022-09-13T15:48:35.126Z,29.50
2022-09-13T15:51:23.112Z,30.10
2022-09-13T15:53:56.661Z,29.60
2022-09-13T15:56:31.164Z,29.80
2022-09-13T15:58:58.074Z,30.70
2022-09-13T16:01:24.908Z,30.10
2022-09-13T16:03:52.072Z,30.70
2022-09-13T16:06:23.994Z,30.90
2022-09-13T16:08:51.763Z,31.10
2022-09-13T16:11:18.692Z,31.40
2022-09-13T16:13:45.428Z,31.70
2022-09-13T16:16:15.161Z,31.20
2022-09-13T16:18:47.631Z,32.00
2022-09-13T16:21:14.474Z,32.20
2022-09-13T16:23:41.191Z,32.40
2022-09-13T16:26:07.978Z,32.40
2022-09-13T16:28:34.756Z,32.50
2022-09-13T16:31:01.705Z,32.90
2022-09-13T16:33:28.617Z,32.80
2022-09-13T16:35:57.995Z,33.30
2022-09-13T16:38:27.257Z,33.40
2022-09-13T16:40:54.063Z,33.60
2022-09-13T16:43:21.075Z,34.00
2022-09-13T16:45:50.387Z,33.40
2022-09-13T16:48:17.375Z,33.80
2022-09-13T16:50:44.116Z,33.90
2022-09-13T16:53:14.120Z,34.60
2022-09-13T16:55:49.713Z,34.90
2022-09-13T16:58:22.550Z,34.50
2022-09-13T17:00:55.682Z,34.70
2022-09-13T17:03:28.799Z,34.50
2022-09-13T17:06:05.559Z,35.10
2022-09-13T17:08:40.909Z,35.20
2022-09-13T17:11:10.276Z,35.40
2022-09-13T17:13:37.886Z,35.00
2022-09-13T17:16:06.830Z,35.60
2022-09-13T17:18:38.922Z,35.50
2022-09-13T17:21:10.058Z,35.40
2022-09-13T17:23:38.898Z,34.90
2022-09-13T17:26:19.647Z,34.90
2022-09-13T17:28:46.518Z,34.70
2022-09-13T17:31:13.741Z,34.80
2022-09-13T17:33:47.073Z,34.70
2022-09-13T17:36:15.163Z,35.10
2022-09-13T17:38:46.619Z,34.90
2022-09-13T17:41:17.964Z,35.00
2022-09-13T17:43:45.402Z,35.10
2022-09-13T17:46:22.115Z,35.00
2022-09-13T17:48:59.658Z,35.40
2022-09-13T17:51:31.765Z,35.60
2022-09-13T17:54:01.539Z,35.80
2022-09-13T17:56:33.224Z,35.80
2022-09-13T17:59:20.100Z,35.70
2022-09-13T18:01:51.883Z,35.50
2022-09-13T18:04:25.639Z,35.80
2022-09-13T18:06:55.056Z,35.90
2022-09-13T18:09:34.697Z,36.20
2022-09-13T18:12:20.032Z,35.90
2022-09-13T18:14:46.926Z,35.80
2022-09-13T18:17:17.765Z,35.90
2022-09-13T18:19:46.927Z,36.70
2022-09-13T18:22:15.039Z,36.40
2022-09-13T18:24:44.710Z,36.20
2022-09-13T18:27:11.331Z,36.40
2022-09-13T18:29:37.948Z,36.40
2022-09-13T18:32:05.845Z,36.60
2022-09-13T18:34:32.531Z,36.50
2022-09-13T18:37:12.515Z,36.50
2022-09-13T18:39:40.922Z,36.70
2022-09-13T18:42:09.066Z,36.60
2022-09-13T18:44:40.608Z,36.70
2022-09-13T18:47:13.166Z,37.10
2022-09-13T18:49:45.942Z,37.00
2022-09-13T18:52:16.977Z,37.50
2022-09-13T18:54:50.915Z,38.20
2022-09-13T18:57:24.292Z,37.70
2022-09-13T19:00:01.610Z,37.90
2022-09-13T19:02:30.306Z,38.20
2022-09-13T19:04:57.370Z,37.80
2022-09-13T19:07:24.512Z,38.40
2022-09-13T19:09:52.775Z,38.70
2022-09-13T19:12:22.116Z,38.50
2022-09-13T19:14:52.985Z,38.60
2022-09-13T19:17:20.132Z,38.80
2022-09-13T19:19:47.306Z,38.80
2022-09-13T19:22:15.101Z,38.60
2022-09-13T19:24:41.727Z,38.60
2022-09-13T19:27:08.331Z,39.20
2022-09-13T19:29:34.926Z,39.00
2022-09-13T19:32:05.692Z,39.10
2022-09-13T19:34:32.291Z,39.00
2022-09-13T19:36:59.960Z,39.60
2022-09-13T19:39:30.007Z,39.40
2022-09-13T19:42:12.390Z,39.40
2022-09-13T19:44:41.606Z,39.70
2022-09-13T19:48:02.231Z,39.70
2022-09-13T19:50:02.275Z,40.10
2022-09-13T19:52:29.214Z,40.50
2022-09-13T19:54:58.631Z,40.70
2022-09-13T19:57:27.576Z,40.90
2022-09-13T19:59:59.697Z,40.50
2022-09-13T20:02:27.137Z,40.50
2022-09-13T20:04:54.526Z,40.30
2022-09-13T20:07:24.892Z,40.50
2022-09-13T20:09:52.853Z,40.50
2022-09-13T20:12:20.649Z,41.30
2022-09-13T20:14:55.083Z,41.20
2022-09-13T20:17:22.865Z,41.10
2022-09-13T20:19:55.891Z,41.10
2022-09-13T20:22:31.997Z,40.80
2022-09-13T20:24:59.082Z,41.20
2022-09-13T20:27:30.565Z,40.90
2022-09-13T20:30:04.689Z,40.80
2022-09-13T20:32:43.228Z,41.00
2022-09-13T20:35:10.693Z,41.90
2022-09-13T20:37:38.055Z,41.60
2022-09-13T20:40:06.350Z,41.50
2022-09-13T20:42:33.678Z,41.80
2022-09-13T20:45:01.454Z,41.70
2022-09-13T20:47:28.228Z,42.20
2022-09-13T20:49:56.505Z,41.80
2022-09-13T20:52:27.740Z,42.00
2022-09-13T20:54:59.246Z,42.50
2022-09-13T20:57:26.655Z,42.20
2022-09-13T20:59:55.610Z,42.50
2022-09-13T21:02:27.550Z,42.60
2022-09-13T21:04:54.803Z,42.40
2022-09-13T21:07:40.057Z,42.40
2022-09-13T21:10:07.867Z,42.50
2022-09-13T21:12:35.693Z,42.70
2022-09-13T21:15:02.352Z,42.60
2022-09-13T21:17:29.090Z,43.10
2022-09-13T21:19:56.103Z,43.00
2022-09-13T21:22:25.970Z,43.40
2022-09-13T21:25:10.979Z,44.00
2022-09-13T21:27:37.778Z,44.30
2022-09-13T21:30:18.992Z,45.10
2022-09-13T21:32:45.755Z,44.30
2022-09-13T21:35:17.723Z,43.90
2022-09-13T21:37:44.913Z,44.10
2022-09-13T21:40:11.661Z,44.10
2022-09-13T21:42:38.594Z,44.70
2022-09-13T21:45:05.974Z,44.30
2022-09-13T21:47:37.177Z,44.10
2022-09-13T21:50:05.405Z,44.00
2022-09-13T21:52:32.136Z,44.90
2022-09-13T21:55:05.695Z,44.70
2022-09-13T21:57:33.103Z,44.40
2022-09-13T22:00:05.255Z,45.10
2022-09-13T22:02:32.828Z,44.80
2022-09-13T22:05:00.363Z,44.60
2022-09-13T22:07:27.083Z,45.30
2022-09-13T22:09:53.880Z,44.80
2022-09-13T22:12:23.191Z,44.70
2022-09-13T22:14:50.045Z,45.10
2022-09-13T22:17:16.719Z,44.70
2022-09-13T22:19:43.421Z,45.00
2022-09-13T22:22:13.474Z,44.70
2022-09-13T22:24:40.288Z,44.60
2022-09-13T22:27:08.589Z,44.80
2022-09-13T22:29:35.856Z,45.50
2022-09-13T22:32:02.708Z,44.70
2022-09-13T22:34:30.968Z,45.20
2022-09-13T22:36:57.831Z,45.40
2022-09-13T22:39:24.545Z,45.00
2022-09-13T22:41:51.864Z,45.30
2022-09-13T22:44:18.835Z,45.10
2022-09-13T22:46:46.024Z,45.20
2022-09-13T22:49:17.553Z,45.80
2022-09-13T22:51:45.260Z,46.50
2022-09-13T22:54:12.505Z,45.60
2022-09-13T22:56:39.268Z,45.70
2022-09-13T22:59:12.510Z,45.30
2022-09-13T23:01:39.220Z,46.20
2022-09-13T23:04:06.796Z,45.80
2022-09-13T23:06:35.436Z,46.00
2022-09-13T23:09:05.019Z,46.60
2022-09-13T23:11:36.819Z,46.50
2022-09-13T23:14:08.407Z,47.30
2022-09-13T23:16:37.289Z,47.10
2022-09-13T23:19:07.220Z,46.80
2022-09-13T23:21:35.455Z,46.70
2022-09-13T23:24:02.781Z,46.80
2022-09-13T23:26:29.822Z,46.50
2022-09-13T23:29:01.473Z,47.10
2022-09-13T23:31:32.264Z,47.10
2022-09-13T23:34:01.617Z,47.00
2022-09-13T23:36:30.915Z,47.10
2022-09-13T23:39:00.593Z,46.90
2022-09-13T23:41:29.622Z,47.00
2022-09-13T23:43:56.290Z,47.30
2022-09-13T23:46:23.121Z,47.10
2022-09-13T23:48:50.164Z,47.20
2022-09-13T23:51:19.204Z,47.20
2022-09-13T23:53:45.878Z,47.30
2022-09-13T23:56:12.888Z,47.00
2022-09-13T23:58:40.062Z,47.00
